createdAt,value
2019-05-22T00:01:28.887Z,23.07
2019-05-22T00:04:05.537Z,21.03
2019-05-22T00:06:43.420Z,23.00
2019-05-22T00:09:19.716Z,26.30
2019-05-22T00:11:52.425Z,21.53
2019-05-22T00:14:25.249Z,26.63
2019-05-22T00:16:57.096Z,24.87
2019-05-22T00:19:28.355Z,26.17
2019-05-22T00:22:07.591Z,25.60
2019-05-22T00:24:39.579Z,24.33
2019-05-22T00:27:12.482Z,29.10
2019-05-22T00:29:44.633Z,26.83
2019-05-22T00:32:18.221Z,25.00
2019-05-22T00:34:50.715Z,26.30
2019-05-22T00:37:22.233Z,25.70
2019-05-22T00:39:54.417Z,26.83
2019-05-22T00:42:27.222Z,24.93
2019-05-22T00:44:59.072Z,25.87
2019-05-22T00:47:33.892Z,28.03
2019-05-22T00:50:08.616Z,27.20
2019-05-22T00:52:45.329Z,28.87
2019-05-22T00:55:36.318Z,30.30
2019-05-22T00:58:14.172Z,25.83
2019-05-22T01:01:12.710Z,25.10
2019-05-22T01:03:45.940Z,26.43
2019-05-22T01:06:18.803Z,21.43
2019-05-22T01:08:51.714Z,26.27
2019-05-22T01:11:27.018Z,19.97
2019-05-22T01:13:58.262Z,20.07
2019-05-22T01:16:29.450Z,20.00
2019-05-22T01:19:00.809Z,16.20
2019-05-22T01:21:33.475Z,16.03
2019-05-22T01:24:06.889Z,17.73
2019-05-22T01:26:39.787Z,19.53
2019-05-22T01:29:11.530Z,21.63
2019-05-22T01:31:48.824Z,19.70
2019-05-22T01:34:22.808Z,22.80
2019-05-22T01:37:01.694Z,24.07
2019-05-22T01:39:55.727Z,21.63
2019-05-22T01:42:33.289Z,19.67
2019-05-22T01:45:07.150Z,18.43
2019-05-22T01:47:48.775Z,18.07
2019-05-22T01:50:43.705Z,20.20
2019-05-22T01:53:16.116Z,21.27
2019-05-22T01:55:48.234Z,17.70
2019-05-22T01:58:21.072Z,15.80
2019-05-22T02:00:54.005Z,20.67
2019-05-22T02:03:25.230Z,19.97
2019-05-22T02:05:57.049Z,18.10
2019-05-22T02:08:30.473Z,22.57
2019-05-22T02:11:03.784Z,19.17
2019-05-22T02:13:40.374Z,17.70
2019-05-22T02:16:11.657Z,20.53
2019-05-22T02:18:43.656Z,18.13
2019-05-22T02:21:16.584Z,22.40
2019-05-22T02:23:48.773Z,23.13
2019-05-22T02:26:20.835Z,23.67
2019-05-22T02:28:53.002Z,24.97
2019-05-22T02:31:28.827Z,29.43
2019-05-22T02:34:01.462Z,30.00
2019-05-22T02:36:35.063Z,28.27
2019-05-22T02:39:12.938Z,29.53
2019-05-22T02:41:48.404Z,29.47
2019-05-22T02:44:21.029Z,33.50
2019-05-22T02:46:53.254Z,30.23
2019-05-22T02:49:26.078Z,30.20
2019-05-22T02:51:57.577Z,33.20
2019-05-22T02:54:31.965Z,32.27
2019-05-22T02:57:03.607Z,32.40
2019-05-22T02:59:35.902Z,33.83
2019-05-22T03:02:07.745Z,25.97
2019-05-22T03:05:09.802Z,26.67
2019-05-22T03:07:41.401Z,25.60
2019-05-22T03:10:15.769Z,27.60
2019-05-22T03:12:48.676Z,25.10
2019-05-22T03:15:21.897Z,25.27
2019-05-22T03:17:59.861Z,27.30
2019-05-22T03:20:32.266Z,26.23
2019-05-22T03:23:41.022Z,27.03
2019-05-22T03:26:13.526Z,23.73
2019-05-22T03:28:45.995Z,23.97
2019-05-22T03:31:18.385Z,27.77
2019-05-22T03:33:49.830Z,25.93
2019-05-22T03:36:22.324Z,27.33
2019-05-22T03:38:53.525Z,25.80
2019-05-22T03:41:24.995Z,28.33
2019-05-22T03:43:58.431Z,27.37
2019-05-22T03:46:37.259Z,25.67
2019-05-22T03:49:28.149Z,23.20
2019-05-22T03:51:44.469Z,25.97
2019-05-22T03:54:16.437Z,24.20
2019-05-22T03:56:47.763Z,29.77
2019-05-22T03:59:19.702Z,31.80
2019-05-22T04:01:51.510Z,30.60
2019-05-22T04:04:40.238Z,35.37
2019-05-22T04:07:19.571Z,35.93
2019-05-22T04:09:52.776Z,36.83
2019-05-22T04:12:24.926Z,36.67
2019-05-22T04:14:56.189Z,36.57
2019-05-22T04:17:27.958Z,36.90
2019-05-22T04:19:59.197Z,31.73
2019-05-22T04:22:30.406Z,34.97
2019-05-22T04:25:01.773Z,35.63
2019-05-22T04:27:33.547Z,34.17
2019-05-22T04:30:06.995Z,34.37
2019-05-22T04:32:39.885Z,29.97
2019-05-22T04:35:12.855Z,37.33
2019-05-22T04:37:46.587Z,32.67
2019-05-22T04:40:55.912Z,37.23
2019-05-22T04:43:34.153Z,31.03
2019-05-22T04:46:08.449Z,34.30
2019-05-22T04:48:39.809Z,31.83
2019-05-22T04:51:30.137Z,28.50
2019-05-22T04:54:01.618Z,33.70
2019-05-22T04:56:33.007Z,32.93
2019-05-22T04:59:05.567Z,27.67
2019-05-22T05:01:36.946Z,29.37
2019-05-22T05:04:08.358Z,28.63
2019-05-22T05:06:40.185Z,27.67
2019-05-22T05:09:14.958Z,27.37
2019-05-22T05:11:46.567Z,27.20
2019-05-22T05:14:17.959Z,30.20
2019-05-22T05:16:49.169Z,30.50
2019-05-22T05:19:20.964Z,31.10
2019-05-22T05:21:52.277Z,30.70
2019-05-22T05:24:23.455Z,26.90
2019-05-22T05:26:54.874Z,30.57
2019-05-22T05:29:31.164Z,27.67
2019-05-22T05:32:02.901Z,28.80
2019-05-22T05:34:49.990Z,26.57
2019-05-22T05:37:23.128Z,25.83
2019-05-22T05:40:25.651Z,25.70
2019-05-22T05:42:56.883Z,26.80
2019-05-22T05:45:28.488Z,24.27
2019-05-22T05:48:00.263Z,25.00
2019-05-22T05:50:39.653Z,23.07
2019-05-22T05:53:08.636Z,22.10
2019-05-22T05:56:13.602Z,22.07
2019-05-22T05:58:45.241Z,21.97
2019-05-22T06:01:39.652Z,21.77
2019-05-22T06:04:14.714Z,20.37
2019-05-22T06:07:19.927Z,18.27
2019-05-22T06:10:32.887Z,21.57
2019-05-22T06:13:04.437Z,19.80
2019-05-22T06:15:49.873Z,19.77
2019-05-22T06:18:40.255Z,20.50
2019-05-22T06:21:11.820Z,21.07
2019-05-22T06:24:25.260Z,28.93
2019-05-22T06:27:23.296Z,20.50
2019-05-22T06:29:59.247Z,17.10
2019-05-22T06:33:34.075Z,18.17
2019-05-22T06:36:07.416Z,20.57
2019-05-22T06:39:16.178Z,20.40
2019-05-22T06:41:47.618Z,17.27
2019-05-22T06:44:36.750Z,21.40
2019-05-22T06:47:13.423Z,18.33
2019-05-22T06:49:49.143Z,16.27
2019-05-22T06:52:20.477Z,17.50
2019-05-22T06:54:51.771Z,15.93
2019-05-22T06:57:25.742Z,14.17
2019-05-22T07:00:13.948Z,12.57
2019-05-22T07:02:43.601Z,14.53
2019-05-22T07:05:14.779Z,13.87
2019-05-22T07:07:46.987Z,13.93
2019-05-22T07:10:19.628Z,14.77
2019-05-22T07:12:51.227Z,13.37
2019-05-22T07:15:46.878Z,15.77
2019-05-22T07:18:22.637Z,13.40
2019-05-22T07:20:56.991Z,15.97
2019-05-22T07:23:29.354Z,18.63
2019-05-22T07:26:02.173Z,16.80
2019-05-22T07:28:35.300Z,15.67
2019-05-22T07:31:06.684Z,17.80
2019-05-22T07:33:38.342Z,20.73
2019-05-22T07:36:15.293Z,18.23
2019-05-22T07:38:42.988Z,18.07
2019-05-22T07:41:14.196Z,16.73
2019-05-22T07:43:45.398Z,17.77
2019-05-22T07:46:16.748Z,19.10
2019-05-22T07:48:48.156Z,18.47
2019-05-22T07:51:19.332Z,18.90
2019-05-22T07:53:50.489Z,17.77
2019-05-22T07:56:21.849Z,17.07
2019-05-22T07:58:53.646Z,18.40
2019-05-22T08:01:25.314Z,16.10
2019-05-22T08:03:57.055Z,15.47
2019-05-22T08:06:28.228Z,15.23
2019-05-22T08:08:59.387Z,17.77
2019-05-22T08:11:30.626Z,16.00
2019-05-22T08:14:02.069Z,17.60
2019-05-22T08:16:33.340Z,22.37
2019-05-22T08:19:04.621Z,17.03
2019-05-22T08:21:36.494Z,19.47
2019-05-22T08:24:07.992Z,14.90
2019-05-22T08:26:53.131Z,20.03
2019-05-22T08:29:12.337Z,23.17
2019-05-22T08:31:44.510Z,19.93
2019-05-22T08:34:15.669Z,29.87
2019-05-22T08:36:48.766Z,15.37
2019-05-22T08:39:20.504Z,17.30
2019-05-22T08:41:51.726Z,17.47
2019-05-22T08:44:22.862Z,13.70
2019-05-22T08:46:54.314Z,13.70
2019-05-22T08:49:25.585Z,14.77
2019-05-22T08:51:57.039Z,14.63
2019-05-22T08:54:28.499Z,14.27
2019-05-22T08:57:00.469Z,16.33
2019-05-22T08:59:32.566Z,13.77
2019-05-22T09:02:05.440Z,14.60
2019-05-22T09:04:36.601Z,17.47
2019-05-22T09:07:07.870Z,16.83
2019-05-22T09:09:39.094Z,17.67
2019-05-22T09:12:11.245Z,20.90
2019-05-22T09:14:42.565Z,18.77
2019-05-22T09:17:13.941Z,18.07
2019-05-22T09:19:45.297Z,17.77
2019-05-22T09:22:16.926Z,21.40
2019-05-22T09:24:48.674Z,20.13
2019-05-22T09:27:21.041Z,20.73
2019-05-22T09:29:52.308Z,25.93
2019-05-22T09:32:23.538Z,25.57
2019-05-22T09:34:55.783Z,25.93
2019-05-22T09:37:26.963Z,23.10
2019-05-22T09:39:58.146Z,26.77
2019-05-22T09:42:29.458Z,26.60
2019-05-22T09:45:00.653Z,25.00
2019-05-22T09:47:32.166Z,23.20
2019-05-22T09:50:04.555Z,23.27
2019-05-22T09:52:35.800Z,25.87
2019-05-22T09:55:07.727Z,23.03
2019-05-22T09:57:39.302Z,24.17
2019-05-22T10:00:11.920Z,24.67
2019-05-22T10:02:44.608Z,22.73
2019-05-22T10:05:18.033Z,23.90
2019-05-22T10:08:00.547Z,26.60
2019-05-22T10:10:22.766Z,27.80
2019-05-22T10:12:53.991Z,26.30
2019-05-22T10:15:25.627Z,27.23
2019-05-22T10:17:56.875Z,34.63
2019-05-22T10:20:28.215Z,31.43
2019-05-22T10:23:14.187Z,33.17
2019-05-22T10:25:33.785Z,31.97
2019-05-22T10:28:06.152Z,32.57
2019-05-22T10:30:37.385Z,31.10
2019-05-22T10:33:09.098Z,31.77
2019-05-22T10:35:41.250Z,32.10
2019-05-22T10:38:12.507Z,31.63
2019-05-22T10:40:43.736Z,30.77
2019-05-22T10:43:14.924Z,30.67
2019-05-22T10:45:46.290Z,31.10
2019-05-22T10:48:17.572Z,27.37
2019-05-22T10:50:48.738Z,31.77
2019-05-22T10:53:33.107Z,31.07
2019-05-22T10:55:53.212Z,30.07
2019-05-22T10:58:24.475Z,26.87
2019-05-22T11:00:55.705Z,29.63
2019-05-22T11:03:27.265Z,26.43
2019-05-22T11:06:07.159Z,25.63
2019-05-22T11:08:34.355Z,24.50
2019-05-22T11:11:04.728Z,26.60
2019-05-22T11:13:36.674Z,27.20
2019-05-22T11:16:08.833Z,25.80
2019-05-22T11:18:41.139Z,28.73
2019-05-22T11:21:12.659Z,27.27
2019-05-22T11:23:52.140Z,24.63
2019-05-22T11:26:17.377Z,26.50
2019-05-22T11:28:48.702Z,29.73
2019-05-22T11:31:20.204Z,27.43
2019-05-22T11:33:52.142Z,27.53
2019-05-22T11:36:23.766Z,26.53
2019-05-22T11:38:54.953Z,24.80
2019-05-22T11:41:26.464Z,23.47
2019-05-22T11:43:58.006Z,26.53
2019-05-22T11:46:29.272Z,26.27
2019-05-22T11:49:01.192Z,28.50
2019-05-22T11:51:32.417Z,27.90
2019-05-22T11:54:09.084Z,21.70
2019-05-22T11:56:36.516Z,20.63
2019-05-22T11:59:07.990Z,19.30
2019-05-22T12:01:39.159Z,23.23
2019-05-22T12:04:11.446Z,24.03
2019-05-22T12:06:42.717Z,23.80
2019-05-22T12:09:15.539Z,23.30
2019-05-22T12:11:46.791Z,21.27
2019-05-22T12:14:19.672Z,22.53
2019-05-22T12:16:53.198Z,21.50
2019-05-22T12:19:24.617Z,21.77
2019-05-22T12:21:55.876Z,23.33
2019-05-22T12:24:35.561Z,25.30
2019-05-22T12:27:00.088Z,22.87
2019-05-22T12:29:31.360Z,23.10
2019-05-22T12:32:02.655Z,22.17
2019-05-22T12:34:33.923Z,24.50
2019-05-22T12:37:05.535Z,18.87
2019-05-22T12:39:37.415Z,24.50
2019-05-22T12:42:09.058Z,23.33
2019-05-22T12:44:40.659Z,20.33
2019-05-22T12:47:13.784Z,21.23
2019-05-22T12:49:45.131Z,18.73
2019-05-22T12:52:17.242Z,21.37
2019-05-22T12:54:52.608Z,21.73
2019-05-22T12:57:22.351Z,21.40
2019-05-22T12:59:54.580Z,20.80
2019-05-22T13:02:27.675Z,22.30
2019-05-22T13:05:00.335Z,21.47
2019-05-22T13:07:31.560Z,19.70
2019-05-22T13:10:03.343Z,19.77
2019-05-22T13:12:35.007Z,20.77
2019-05-22T13:15:10.366Z,19.97
2019-05-22T13:17:39.988Z,19.10
2019-05-22T13:20:12.701Z,20.53
2019-05-22T13:22:47.846Z,19.27
2019-05-22T13:25:20.938Z,21.40
2019-05-22T13:27:53.369Z,18.73
2019-05-22T13:30:28.403Z,21.60
2019-05-22T13:32:59.281Z,18.17
2019-05-22T13:35:31.519Z,16.73
2019-05-22T13:38:04.281Z,18.00
2019-05-22T13:40:36.604Z,20.03
2019-05-22T13:43:07.765Z,21.70
2019-05-22T13:45:38.963Z,21.70
2019-05-22T13:48:10.310Z,18.10
2019-05-22T13:50:41.641Z,23.37
2019-05-22T13:53:14.029Z,25.60
2019-05-22T13:55:45.765Z,20.43
2019-05-22T13:58:17.545Z,18.87
2019-05-22T14:00:49.184Z,19.33
2019-05-22T14:03:20.744Z,15.90
2019-05-22T14:05:53.605Z,20.70
2019-05-22T14:08:24.804Z,16.43
2019-05-22T14:10:56.366Z,21.83
2019-05-22T14:13:27.885Z,17.70
2019-05-22T14:15:59.245Z,18.93
2019-05-22T14:18:30.534Z,22.53
2019-05-22T14:21:01.740Z,19.50
2019-05-22T14:23:32.904Z,15.80
2019-05-22T14:26:04.090Z,13.13
2019-05-22T14:28:36.249Z,12.80
2019-05-22T14:31:07.542Z,18.87
2019-05-22T14:33:40.638Z,16.63
2019-05-22T14:36:12.708Z,17.20
2019-05-22T14:38:44.113Z,14.90
2019-05-22T14:41:15.391Z,16.77
2019-05-22T14:43:46.579Z,14.63
2019-05-22T14:46:17.897Z,13.03
2019-05-22T14:48:49.105Z,14.33
2019-05-22T14:51:21.331Z,15.07
2019-05-22T14:53:54.361Z,16.77
2019-05-22T14:56:26.435Z,13.53
2019-05-22T14:58:58.120Z,18.13
2019-05-22T15:01:29.563Z,19.30
2019-05-22T15:04:00.878Z,13.80
2019-05-22T15:06:34.037Z,15.27
2019-05-22T15:09:07.536Z,15.77
2019-05-22T15:11:38.688Z,13.10
2019-05-22T15:14:09.856Z,15.40
2019-05-22T15:16:41.065Z,19.47
2019-05-22T15:19:12.228Z,14.43
2019-05-22T15:21:43.446Z,17.67
2019-05-22T15:24:15.194Z,12.30
2019-05-22T15:26:46.435Z,15.50
2019-05-22T15:29:17.699Z,14.43
2019-05-22T15:31:50.731Z,14.37
2019-05-22T15:34:22.124Z,15.40
2019-05-22T15:36:53.702Z,14.43
2019-05-22T15:39:27.094Z,13.57
2019-05-22T15:41:58.415Z,16.67
2019-05-22T15:44:29.848Z,17.57
2019-05-22T15:47:02.477Z,36.13
2019-05-22T15:49:34.126Z,14.40
2019-05-22T15:52:07.418Z,14.33
2019-05-22T15:54:38.669Z,14.90
2019-05-22T15:57:11.513Z,13.83
2019-05-22T15:59:43.373Z,14.00
2019-05-22T16:02:15.106Z,13.27
2019-05-22T16:04:47.598Z,15.30
2019-05-22T16:07:20.067Z,13.40
2019-05-22T16:09:51.297Z,14.73
2019-05-22T16:12:22.821Z,13.43
2019-05-22T16:14:54.612Z,12.53
2019-05-22T16:17:27.118Z,15.13
2019-05-22T16:19:59.652Z,12.57
2019-05-22T16:22:31.664Z,12.30
2019-05-22T16:25:03.552Z,10.53
2019-05-22T16:27:35.320Z,14.60
2019-05-22T16:30:07.900Z,13.33
2019-05-22T16:32:39.239Z,10.73
2019-05-22T16:35:10.539Z,15.60
2019-05-22T16:37:41.737Z,11.57
2019-05-22T16:40:13.144Z,10.17
2019-05-22T16:42:44.452Z,15.70
2019-05-22T16:45:15.703Z,10.67
2019-05-22T16:47:46.997Z,12.37
2019-05-22T16:50:18.687Z,8.33
2019-05-22T16:52:49.850Z,11.20
2019-05-22T16:55:21.337Z,9.43
2019-05-22T16:57:52.966Z,11.63
2019-05-22T17:00:24.461Z,8.90
2019-05-22T17:03:16.850Z,9.63
2019-05-22T17:05:49.126Z,10.47
2019-05-22T17:08:24.356Z,8.40
2019-05-22T17:10:57.347Z,13.17
2019-05-22T17:13:30.641Z,10.43
2019-05-22T17:16:02.471Z,9.10
2019-05-22T17:18:47.138Z,10.93
2019-05-22T17:21:08.494Z,7.67
2019-05-22T17:23:39.656Z,12.13
2019-05-22T17:26:13.540Z,7.93
2019-05-22T17:28:45.246Z,9.40
2019-05-22T17:31:17.442Z,8.40
2019-05-22T17:33:50.238Z,10.73
2019-05-22T17:36:22.522Z,10.77
2019-05-22T17:38:54.041Z,8.30
2019-05-22T17:41:25.841Z,8.33
2019-05-22T17:43:57.011Z,8.23
2019-05-22T17:46:30.013Z,9.33
2019-05-22T17:49:01.350Z,9.03
2019-05-22T17:51:32.707Z,8.07
2019-05-22T17:54:04.567Z,8.23
2019-05-22T17:56:35.944Z,7.13
2019-05-22T17:59:07.177Z,6.93
2019-05-22T18:01:38.545Z,5.90
2019-05-22T18:04:10.042Z,6.77
2019-05-22T18:06:41.641Z,8.70
2019-05-22T18:09:13.265Z,7.30
2019-05-22T18:11:44.436Z,6.57
2019-05-22T18:14:17.227Z,7.50
2019-05-22T18:16:48.670Z,5.50
2019-05-22T18:19:21.055Z,5.60
2019-05-22T18:21:57.491Z,9.90
2019-05-22T18:24:29.147Z,7.00
2019-05-22T18:27:00.719Z,6.57
2019-05-22T18:29:32.254Z,11.37
2019-05-22T18:32:03.759Z,5.63
2019-05-22T18:34:35.818Z,7.87
2019-05-22T18:37:07.418Z,7.00
2019-05-22T18:39:38.911Z,6.93
2019-05-22T18:42:10.387Z,6.17
2019-05-22T18:44:41.776Z,9.90
2019-05-22T18:47:13.099Z,7.13
2019-05-22T18:49:44.341Z,4.47
2019-05-22T18:52:15.651Z,7.87
2019-05-22T18:54:47.062Z,4.83
2019-05-22T18:57:19.454Z,7.80
2019-05-22T18:59:50.925Z,8.17
2019-05-22T19:02:22.418Z,5.60
2019-05-22T19:04:53.713Z,7.70
2019-05-22T19:07:25.033Z,7.20
2019-05-22T19:09:56.374Z,6.37
2019-05-22T19:12:28.258Z,7.00
2019-05-22T19:15:00.579Z,8.27
2019-05-22T19:17:32.157Z,7.20
2019-05-22T19:20:04.021Z,10.87
2019-05-22T19:22:35.646Z,9.33
2019-05-22T19:25:07.155Z,6.80
2019-05-22T19:27:39.350Z,10.07
2019-05-22T19:30:11.893Z,9.23
2019-05-22T19:32:43.079Z,9.83
2019-05-22T19:35:14.231Z,9.63
2019-05-22T19:37:45.947Z,11.77
2019-05-22T19:40:17.914Z,7.40
2019-05-22T19:42:49.467Z,7.40
2019-05-22T19:45:20.800Z,7.27
2019-05-22T19:47:52.986Z,9.13
2019-05-22T19:50:25.322Z,7.90
2019-05-22T19:52:56.843Z,9.53
2019-05-22T19:55:31.383Z,10.37
2019-05-22T19:58:04.213Z,6.30
2019-05-22T20:00:35.851Z,12.67
2019-05-22T20:03:07.697Z,11.67
2019-05-22T20:05:39.902Z,12.70
2019-05-22T20:08:11.161Z,14.30
2019-05-22T20:10:43.483Z,11.83
2019-05-22T20:13:15.702Z,8.07
2019-05-22T20:15:47.741Z,9.37
2019-05-22T20:18:19.175Z,10.63
2019-05-22T20:20:50.493Z,8.40
2019-05-22T20:23:35.391Z,9.63
2019-05-22T20:25:56.131Z,10.67
2019-05-22T20:28:28.027Z,14.23
2019-05-22T20:30:59.275Z,8.87
2019-05-22T20:33:30.546Z,11.00
2019-05-22T20:36:01.919Z,11.00
2019-05-22T20:38:33.359Z,9.90
2019-05-22T20:41:04.595Z,12.17
2019-05-22T20:43:37.696Z,11.20
2019-05-22T20:46:09.528Z,9.10
2019-05-22T20:48:41.801Z,8.63
2019-05-22T20:51:15.194Z,9.53
2019-05-22T20:53:54.344Z,10.50
2019-05-22T20:56:21.595Z,9.37
2019-05-22T20:58:53.351Z,11.30
2019-05-22T21:01:24.992Z,12.10
2019-05-22T21:03:56.568Z,12.70
2019-05-22T21:06:28.917Z,11.90
2019-05-22T21:09:00.258Z,11.80
2019-05-22T21:11:31.861Z,16.10
2019-05-22T21:14:04.555Z,13.10
2019-05-22T21:16:35.986Z,11.73
2019-05-22T21:19:07.812Z,12.73
2019-05-22T21:21:38.978Z,13.27
2019-05-22T21:24:12.318Z,12.13
2019-05-22T21:26:48.151Z,11.37
2019-05-22T21:29:19.874Z,14.77
2019-05-22T21:31:52.351Z,11.73
2019-05-22T21:34:24.885Z,18.00
2019-05-22T21:36:56.106Z,12.97
2019-05-22T21:39:28.679Z,11.63
2019-05-22T21:41:59.823Z,13.10
2019-05-22T21:44:31.258Z,12.87
2019-05-22T21:47:05.355Z,11.63
2019-05-22T21:49:38.962Z,13.07
2019-05-22T21:52:11.434Z,12.27
2019-05-22T21:54:42.598Z,11.53
2019-05-22T21:57:14.171Z,12.87
2019-05-22T21:59:45.454Z,11.70
2019-05-22T22:02:25.432Z,12.83
2019-05-22T22:04:56.596Z,14.03
2019-05-22T22:07:28.197Z,12.33
2019-05-22T22:09:59.922Z,14.53
2019-05-22T22:12:31.151Z,16.03
2019-05-22T22:15:03.354Z,12.90
2019-05-22T22:17:36.878Z,14.50
2019-05-22T22:20:08.462Z,14.73
2019-05-22T22:22:39.901Z,13.83
2019-05-22T22:25:11.140Z,12.70
2019-05-22T22:27:43.165Z,13.17
2019-05-22T22:30:23.717Z,18.10
2019-05-22T22:32:56.454Z,12.37
2019-05-22T22:35:27.636Z,12.53
2019-05-22T22:37:58.994Z,12.43
2019-05-22T22:40:30.414Z,14.10
2019-05-22T22:43:02.604Z,14.80
2019-05-22T22:45:43.685Z,12.43
2019-05-22T22:48:17.311Z,17.13
2019-05-22T22:50:48.483Z,12.40
2019-05-22T22:53:20.302Z,13.27
2019-05-22T22:55:51.862Z,17.97
2019-05-22T22:58:23.016Z,12.90
2019-05-22T23:00:55.242Z,15.10
2019-05-22T23:03:27.270Z,14.97
2019-05-22T23:05:58.458Z,14.17
2019-05-22T23:08:31.855Z,13.97
2019-05-22T23:11:04.026Z,14.43
2019-05-22T23:13:35.646Z,12.10
2019-05-22T23:16:07.018Z,14.10
2019-05-22T23:19:32.170Z,15.33
2019-05-22T23:22:03.215Z,15.23
2019-05-22T23:24:34.974Z,21.30
2019-05-22T23:27:07.107Z,14.60
2019-05-22T23:29:38.561Z,15.10
2019-05-22T23:32:12.126Z,16.33
2019-05-22T23:34:44.881Z,19.13
2019-05-22T23:37:18.999Z,15.17
2019-05-22T23:39:52.983Z,16.43
2019-05-22T23:42:31.410Z,15.13
2019-05-22T23:45:02.884Z,13.97
2019-05-22T23:47:38.214Z,13.27
2019-05-22T23:50:09.343Z,15.60
2019-05-22T23:52:40.517Z,13.97
2019-05-22T23:55:13.286Z,15.10
2019-05-22T23:57:44.914Z,15.37
